Time;durP1;ratioP1;P1;durP2;ratioP2;P2;SDS_P1;SDS_P2;PMS_P1;PMS_P2;Temp;Humidity;BMP_temperature;BMP_pressure;BME280_temperature;BME280_humidity;BME280_pressure;Samples;Min_cycle;Max_cycle;Signal;HPM_P1;HPM_P2
2023/04/04 00:01:59;;;;;;;;;;;;;;;4.42;48.42;98062.56;4902999;28;20236;-81
2023/04/04 00:04:25;;;;;;;;;;;;;;;4.32;48.69;98062.88;4925395;28;20343;-80
2023/04/04 00:06:51;;;;;;;;;;;;;;;4.31;48.39;98066.41;4934408;28;20051;-82
2023/04/04 00:09:17;;;;;;;;;;;;;;;4.30;48.70;98065.63;4898867;28;20284;-82
2023/04/04 00:11:42;;;;;;;;;;;;;;;4.32;48.32;98063.66;4908005;28;20092;-81
2023/04/04 00:14:07;;;;;;;;;;;;;;;4.28;48.75;98062.44;4901032;28;20093;-82
2023/04/04 00:16:33;;;;;;;;;;;;;;;4.22;49.16;98058.00;4914915;28;20413;-82
2023/04/04 00:18:58;;;;;;;;;;;;;;;3.93;49.50;98051.91;4909378;28;20148;-79
2023/04/04 00:21:26;;;;;;;;;;;;;;;3.94;49.23;98060.44;4917301;28;20129;-80
2023/04/04 00:23:53;;;;;;;;;;;;;;;4.09;50.11;98048.31;4914681;28;20395;-81
2023/04/04 00:26:19;;;;;;;;;;;;;;;3.90;49.22;98049.69;4913425;28;20147;-80
2023/04/04 00:28:44;;;;;;;;;;;;;;;3.90;49.25;98049.69;4910847;28;20300;-80
2023/04/04 00:31:09;;;;;;;;;;;;;;;3.94;49.57;98045.78;4927453;28;20128;-80
2023/04/04 00:33:35;;;;;;;;;;;;;;;3.91;50.06;98045.34;4929565;28;20171;-81
2023/04/04 00:36:01;;;;;;;;;;;;;;;3.84;49.93;98037.53;4926516;28;20092;-82
2023/04/04 00:38:28;;;;;;;;;;;;;;;3.73;49.08;98045.72;4927819;28;20069;-80
2023/04/04 00:40:54;;;;;;;;;;;;;;;3.74;49.88;98037.03;4908539;28;20096;-81
2023/04/04 00:43:19;;;;;;;;;;;;;;;3.63;49.78;98037.47;4910075;28;20100;-81
2023/04/04 00:45:45;;;;;;;;;;;;;;;3.70;49.73;98028.03;4928917;28;20238;-80
2023/04/04 00:48:10;;;;;;;;;;;;;;;3.43;50.50;98034.59;4908647;28;20166;-80
2023/04/04 00:50:35;;;;;;;;;;;;;;;3.50;50.95;98030.38;4923174;28;20191;-80
2023/04/04 00:53:01;;;;;;;;;;;;;;;3.41;50.53;98029.66;4914461;28;20324;-80
2023/04/04 00:55:26;;;;;;;;;;;;;;;3.41;50.65;98028.84;4913887;28;20096;-80
2023/04/04 00:57:51;;;;;;;;;;;;;;;3.35;50.36;98025.22;4915782;28;20285;-80
2023/04/04 01:00:17;;;;;;;;;;;;;;;3.26;50.90;98021.13;4928513;28;20284;-81
2023/04/04 01:02:42;;;;;;;;;;;;;;;3.15;51.49;98014.63;4952085;22;20442;-77
2023/04/04 01:05:08;;;;;;;;;;;;;;;3.26;50.60;98016.78;4942043;28;19993;-76
2023/04/04 01:07:34;;;;;;;;;;;;;;;3.18;51.20;98017.63;4944404;28;20269;-76
2023/04/04 01:10:00;;;;;;;;;;;;;;;3.15;50.93;98014.63;4932905;28;20177;-76
2023/04/04 01:12:25;;;;;;;;;;;;;;;3.11;50.70;98011.59;4931997;28;20299;-77
2023/04/04 01:14:51;;;;;;;;;;;;;;;3.07;50.80;98012.94;4929054;28;20327;-77
2023/04/04 01:17:16;;;;;;;;;;;;;;;3.09;51.03;98005.84;4937370;28;20292;-77
2023/04/04 01:19:57;;;;;;;;;;;;;;;3.22;51.10;98007.00;4962286;28;20254;-76
2023/04/04 01:22:22;;;;;;;;;;;;;;;3.24;51.26;98011.00;4946759;28;20219;-77
2023/04/04 01:24:48;;;;;;;;;;;;;;;3.06;51.33;98011.31;4938363;28;20383;-77
2023/04/04 01:27:13;;;;;;;;;;;;;;;3.09;51.37;98008.41;4933020;28;20368;-77
2023/04/04 01:29:38;;;;;;;;;;;;;;;3.02;51.46;98004.13;4934597;28;20539;-77
2023/04/04 01:32:07;;;;;;;;;;;;;;;3.06;51.24;98006.19;4950822;28;19997;-77
2023/04/04 01:34:48;;;;;;;;;;;;;;;3.06;51.37;98003.59;4948728;28;20077;-77
2023/04/04 01:37:17;;;;;;;;;;;;;;;2.91;51.76;97995.06;4963379;28;20513;-77
2023/04/04 01:39:46;;;;;;;;;;;;;;;2.92;51.29;97999.25;4949206;28;20075;-77
2023/04/04 01:42:11;;;;;;;;;;;;;;;2.96;51.44;97992.78;4920027;28;20190;-76
2023/04/04 01:44:36;;;;;;;;;;;;;;;2.84;51.89;97984.69;4933740;28;20128;-77
2023/04/04 01:47:04;;;;;;;;;;;;;;;2.86;51.64;97989.66;4949033;28;20376;-76
2023/04/04 01:49:29;;;;;;;;;;;;;;;2.80;52.31;97993.72;4942525;28;20194;-77
2023/04/04 01:51:55;;;;;;;;;;;;;;;2.64;52.22;97989.53;4932553;28;20296;-77
2023/04/04 01:54:21;;;;;;;;;;;;;;;2.73;51.71;97991.03;4928797;28;20572;-77
2023/04/04 01:56:46;;;;;;;;;;;;;;;2.72;52.09;97994.56;4951651;28;20014;-77
2023/04/04 01:59:12;;;;;;;;;;;;;;;2.69;51.75;97983.84;4943744;28;20224;-77
2023/04/04 02:01:37;;;;;;;;;;;;;;;2.79;52.41;97981.81;4933998;28;20243;-77
2023/04/04 02:04:03;;;;;;;;;;;;;;;2.76;52.08;97980.41;4936375;28;20229;-77
2023/04/04 02:06:29;;;;;;;;;;;;;;;2.69;51.79;97986.41;4961718;28;20272;-76
2023/04/04 02:08:55;;;;;;;;;;;;;;;2.66;52.35;97974.72;4941346;28;19939;-77
2023/04/04 02:11:21;;;;;;;;;;;;;;;2.51;52.20;97976.44;4945650;28;20262;-77
2023/04/04 02:13:47;;;;;;;;;;;;;;;2.29;53.12;97978.06;4930123;28;20268;-77
2023/04/04 02:16:12;;;;;;;;;;;;;;;2.38;53.09;97982.97;4947917;28;20301;-77
2023/04/04 02:18:38;;;;;;;;;;;;;;;2.26;53.14;97984.31;4952388;28;20096;-77
2023/04/04 02:21:03;;;;;;;;;;;;;;;2.29;53.02;97986.56;4958335;28;20096;-77
2023/04/04 02:23:28;;;;;;;;;;;;;;;2.35;52.68;97988.44;4944685;28;20731;-77
2023/04/04 02:25:54;;;;;;;;;;;;;;;2.35;53.59;97985.88;4939542;28;19997;-77
2023/04/04 02:28:20;;;;;;;;;;;;;;;2.47;53.09;97986.28;4933833;28;21389;-77
2023/04/04 02:30:45;;;;;;;;;;;;;;;2.42;53.09;97986.00;4957225;28;19970;-77
2023/04/04 02:33:11;;;;;;;;;;;;;;;2.35;53.57;97993.59;4928697;28;20092;-77
2023/04/04 02:35:36;;;;;;;;;;;;;;;2.41;52.81;97986.94;4913885;28;20101;-77
2023/04/04 02:38:01;;;;;;;;;;;;;;;2.20;52.95;97990.16;4931269;28;20076;-78
2023/04/04 02:40:27;;;;;;;;;;;;;;;2.26;53.18;97986.88;4940945;28;20161;-78
2023/04/04 02:42:52;;;;;;;;;;;;;;;2.27;53.24;97983.34;4926854;28;20072;-77
2023/04/04 02:45:17;;;;;;;;;;;;;;;2.29;53.32;97990.91;4973789;28;19916;-77
2023/04/04 02:47:48;;;;;;;;;;;;;;;2.01;54.28;97987.03;4950629;28;20076;-77
2023/04/04 02:50:14;;;;;;;;;;;;;;;2.08;54.15;97988.94;4939916;28;20076;-77
2023/04/04 02:52:39;;;;;;;;;;;;;;;2.17;53.13;97990.50;4935204;28;20248;-78
2023/04/04 02:55:05;;;;;;;;;;;;;;;2.28;53.52;97991.84;4934062;28;19928;-78
2023/04/04 02:57:30;;;;;;;;;;;;;;;2.37;53.43;97989.06;4919479;28;20076;-77
2023/04/04 02:59:56;;;;;;;;;;;;;;;2.30;53.48;97985.59;4949328;28;20246;-77
2023/04/04 03:02:22;;;;;;;;;;;;;;;2.25;53.34;97985.31;4968553;28;20166;-77
2023/04/04 03:04:48;;;;;;;;;;;;;;;2.18;53.30;97986.97;4930399;28;20006;-76
2023/04/04 03:07:13;;;;;;;;;;;;;;;2.28;53.37;97984.16;4938932;28;20076;-77
2023/04/04 03:09:38;;;;;;;;;;;;;;;2.38;53.66;97987.28;4947725;28;20299;-78
2023/04/04 03:12:04;;;;;;;;;;;;;;;2.31;53.61;97992.31;4952601;28;20117;-77
2023/04/04 03:14:29;;;;;;;;;;;;;;;2.20;53.11;97987.59;4940873;28;20096;-77
2023/04/04 03:16:55;;;;;;;;;;;;;;;2.17;53.65;97986.13;4927849;28;20065;-77
2023/04/04 03:19:20;;;;;;;;;;;;;;;2.11;53.64;97991.16;4920629;28;20163;-76
2023/04/04 03:21:47;;;;;;;;;;;;;;;1.97;53.88;97997.81;4936126;28;20327;-77
2023/04/04 03:24:12;;;;;;;;;;;;;;;2.04;53.58;97999.56;4939040;28;20097;-77
2023/04/04 03:26:37;;;;;;;;;;;;;;;1.98;54.10;97996.84;4935407;28;20123;-77
2023/04/04 03:29:03;;;;;;;;;;;;;;;2.11;53.29;97996.28;4947335;28;20202;-77
2023/04/04 03:31:29;;;;;;;;;;;;;;;1.97;54.00;97988.38;4941567;28;20121;-77
2023/04/04 03:33:54;;;;;;;;;;;;;;;1.90;53.76;97984.84;4918112;28;20120;-77
2023/04/04 03:36:20;;;;;;;;;;;;;;;1.96;54.03;97991.88;4933247;28;20163;-76
2023/04/04 03:38:45;;;;;;;;;;;;;;;1.98;52.90;97984.81;4942487;28;20356;-76
2023/04/04 03:41:10;;;;;;;;;;;;;;;1.78;53.45;97981.88;4949190;28;20256;-77
2023/04/04 03:43:36;;;;;;;;;;;;;;;1.79;53.69;97982.66;4942439;28;20294;-77
2023/04/04 03:46:04;;;;;;;;;;;;;;;1.90;53.45;97984.84;4952420;28;20092;-77
2023/04/04 03:48:30;;;;;;;;;;;;;;;1.87;53.33;97982.63;4942443;28;19988;-76
2023/04/04 03:50:56;;;;;;;;;;;;;;;1.85;53.57;97981.97;4925013;28;20095;-76
2023/04/04 03:53:22;;;;;;;;;;;;;;;1.93;53.22;97978.59;4936153;28;20229;-76
2023/04/04 03:55:47;;;;;;;;;;;;;;;1.89;53.18;97983.25;4943601;28;20135;-76
2023/04/04 03:58:13;;;;;;;;;;;;;;;1.98;53.00;97982.25;4942156;28;19986;-77
2023/04/04 04:00:38;;;;;;;;;;;;;;;1.97;53.28;97983.22;4931793;28;20279;-76
2023/04/04 04:03:03;;;;;;;;;;;;;;;2.13;52.92;97986.66;4934076;28;20142;-77
2023/04/04 04:05:29;;;;;;;;;;;;;;;1.91;52.94;97978.75;4950507;28;19943;-76
2023/04/04 04:07:55;;;;;;;;;;;;;;;1.89;53.38;97975.56;4936971;28;20069;-76
2023/04/04 04:10:20;;;;;;;;;;;;;;;1.99;52.70;97968.44;4915923;28;20184;-77
2023/04/04 04:12:46;;;;;;;;;;;;;;;2.19;52.69;97979.09;4950363;28;20260;-77
2023/04/04 04:15:11;;;;;;;;;;;;;;;2.26;52.57;97974.03;4936537;28;20257;-77
2023/04/04 04:17:40;;;;;;;;;;;;;;;2.08;52.71;97973.53;4922386;28;20110;-76
2023/04/04 04:20:07;;;;;;;;;;;;;;;2.02;53.19;97968.09;4927664;28;20253;-76
2023/04/04 04:22:32;;;;;;;;;;;;;;;2.08;53.16;97971.75;4911397;28;20336;-75
2023/04/04 04:24:58;;;;;;;;;;;;;;;2.02;53.34;97975.00;4936924;28;20118;-76
2023/04/04 04:27:23;;;;;;;;;;;;;;;1.96;52.83;97971.34;4970176;28;20257;-77
2023/04/04 04:29:48;;;;;;;;;;;;;;;2.00;52.92;97970.03;4920904;28;20641;-76
2023/04/04 04:32:15;;;;;;;;;;;;;;;1.88;53.06;97968.81;4947638;28;20221;-76
2023/04/04 04:34:41;;;;;;;;;;;;;;;1.84;53.06;97970.91;4936794;28;20230;-76
2023/04/04 04:37:07;;;;;;;;;;;;;;;1.85;53.20;97967.41;4940791;28;20453;-76
2023/04/04 04:39:32;;;;;;;;;;;;;;;1.84;53.47;97972.69;4923292;28;20057;-76
2023/04/04 04:41:57;;;;;;;;;;;;;;;1.90;53.00;97978.91;4943968;28;20158;-76
2023/04/04 04:44:23;;;;;;;;;;;;;;;1.88;53.22;97971.38;4938782;28;20339;-76
2023/04/04 04:46:48;;;;;;;;;;;;;;;1.79;53.39;97972.41;4923675;28;20053;-76
2023/04/04 04:49:13;;;;;;;;;;;;;;;1.88;52.99;97968.81;4926063;28;20323;-76
2023/04/04 04:51:39;;;;;;;;;;;;;;;1.89;53.06;97967.06;4939185;28;20153;-76
2023/04/04 04:54:04;;;;;;;;;;;;;;;1.87;53.52;97969.78;4925502;28;19917;-76
2023/04/04 04:56:29;;;;;;;;;;;;;;;1.96;53.06;97968.78;4910566;28;20192;-76
2023/04/04 04:58:55;;;;;;;;;;;;;;;1.91;52.97;97970.25;4917149;28;20150;-77
2023/04/04 05:01:20;;;;;;;;;;;;;;;1.95;53.39;97959.47;4942460;28;20175;-76
2023/04/04 05:03:45;;;;;;;;;;;;;;;1.95;53.22;97962.03;4936582;28;19991;-76
2023/04/04 05:06:11;;;;;;;;;;;;;;;1.84;53.14;97963.22;4928812;28;20294;-77
2023/04/04 05:08:36;;;;;;;;;;;;;;;1.93;52.97;97971.66;4917967;28;20330;-75
2023/04/04 05:11:01;;;;;;;;;;;;;;;1.87;53.00;97970.59;4913940;28;20438;-76
2023/04/04 05:13:27;;;;;;;;;;;;;;;1.90;53.47;97966.88;4941503;28;20232;-76
2023/04/04 05:15:52;;;;;;;;;;;;;;;1.97;52.83;97967.81;4936165;28;20253;-76
2023/04/04 05:18:18;;;;;;;;;;;;;;;1.87;53.05;97967.22;4942133;28;20307;-76
2023/04/04 05:20:48;;;;;;;;;;;;;;;1.80;52.81;97968.84;4953856;28;20020;-76
2023/04/04 05:23:13;;;;;;;;;;;;;;;1.80;52.79;97966.28;4931489;28;20040;-76
2023/04/04 05:25:39;;;;;;;;;;;;;;;1.82;53.42;97974.63;4936618;28;20237;-76
2023/04/04 05:28:04;;;;;;;;;;;;;;;1.76;52.98;97980.44;4925154;28;20349;-77
2023/04/04 05:30:31;;;;;;;;;;;;;;;1.61;53.27;97976.03;4963738;28;20092;-77
2023/04/04 05:32:56;;;;;;;;;;;;;;;1.86;53.03;97971.53;4940994;28;20399;-76
2023/04/04 05:35:21;;;;;;;;;;;;;;;1.82;53.00;97974.63;4937537;28;20171;-76
2023/04/04 05:37:47;;;;;;;;;;;;;;;1.90;52.64;97976.34;4933508;28;19921;-76
2023/04/04 05:40:12;;;;;;;;;;;;;;;1.92;52.77;97970.09;4926460;28;19990;-76
2023/04/04 05:42:37;;;;;;;;;;;;;;;2.06;52.39;97979.63;4945949;28;20485;-77
2023/04/04 05:45:03;;;;;;;;;;;;;;;2.18;52.96;97979.25;4944459;28;20166;-76
2023/04/04 05:47:28;;;;;;;;;;;;;;;2.16;52.06;97983.75;4919026;28;20223;-77
2023/04/04 05:49:53;;;;;;;;;;;;;;;2.13;52.32;97978.97;4934287;28;20467;-77
2023/04/04 05:52:19;;;;;;;;;;;;;;;2.17;52.45;97985.34;4966981;28;20311;-76
2023/04/04 05:54:44;;;;;;;;;;;;;;;2.34;51.85;97991.97;4947495;28;20097;-76
2023/04/04 05:57:10;;;;;;;;;;;;;;;2.48;51.62;97987.06;4923268;28;20143;-76
2023/04/04 05:59:36;;;;;;;;;;;;;;;2.44;51.62;97994.31;4945701;28;20403;-76
2023/04/04 06:02:01;;;;;;;;;;;;;;;2.32;51.35;97988.00;4942427;28;20296;-77
2023/04/04 06:04:26;;;;;;;;;;;;;;;2.73;51.49;97988.47;4912539;28;20411;-76
2023/04/04 06:06:52;;;;;;;;;;;;;;;2.54;51.29;97986.38;4933053;28;20213;-76
2023/04/04 06:09:17;;;;;;;;;;;;;;;2.67;51.15;97990.94;4933025;28;20514;-76
2023/04/04 06:11:43;;;;;;;;;;;;;;;2.70;50.48;97993.16;4911605;28;20192;-77
2023/04/04 06:14:08;;;;;;;;;;;;;;;2.80;49.92;97989.38;4925400;28;20092;-77
2023/04/04 06:16:34;;;;;;;;;;;;;;;2.97;50.01;97987.47;4909024;28;20236;-75
2023/04/04 06:18:59;;;;;;;;;;;;;;;2.85;50.05;97995.78;4940621;28;20066;-75
2023/04/04 06:21:25;;;;;;;;;;;;;;;2.96;49.93;97985.06;4908435;28;20131;-77
2023/04/04 06:23:50;;;;;;;;;;;;;;;2.97;49.97;97987.47;4916437;28;20177;-77
2023/04/04 06:26:16;;;;;;;;;;;;;;;3.13;49.65;97985.69;4923072;28;20391;-77
2023/04/04 06:28:48;;;;;;;;;;;;;;;3.32;50.00;97985.16;4932749;28;20414;-76
2023/04/04 06:31:14;;;;;;;;;;;;;;;3.17;49.61;97992.06;4944851;28;20529;-76
2023/04/04 06:33:39;;;;;;;;;;;;;;;3.37;49.25;97982.84;4926414;28;20096;-77
2023/04/04 06:36:05;;;;;;;;;;;;;;;3.67;48.75;97987.22;4916186;28;20252;-77
2023/04/04 06:38:30;;;;;;;;;;;;;;;3.76;48.36;97988.69;4939128;28;20141;-77
2023/04/04 06:40:56;;;;;;;;;;;;;;;3.71;48.49;97988.44;4936645;28;20331;-76
2023/04/04 06:43:22;;;;;;;;;;;;;;;3.66;48.95;97993.34;4938967;28;20422;-77
2023/04/04 06:45:47;;;;;;;;;;;;;;;3.96;48.08;97991.50;4929225;28;19963;-77
2023/04/04 06:48:12;;;;;;;;;;;;;;;4.11;48.36;98001.75;4928289;28;20582;-77
2023/04/04 06:50:37;;;;;;;;;;;;;;;4.10;48.12;98002.75;4929650;28;19991;-77
2023/04/04 06:53:04;;;;;;;;;;;;;;;4.16;47.26;98006.38;4922135;28;20262;-77
2023/04/04 06:55:31;;;;;;;;;;;;;;;4.10;47.48;98005.34;4933933;28;20165;-77
2023/04/04 06:57:57;;;;;;;;;;;;;;;4.17;47.25;98005.41;4940628;28;20057;-76
2023/04/04 07:00:22;;;;;;;;;;;;;;;4.31;46.74;98009.72;4913381;28;20251;-77
2023/04/04 07:02:47;;;;;;;;;;;;;;;4.13;46.58;97997.25;4934350;28;20285;-77
2023/04/04 07:05:16;;;;;;;;;;;;;;;4.61;45.40;98004.41;4923794;28;20095;-76
2023/04/04 07:07:45;;;;;;;;;;;;;;;4.54;46.01;98003.56;4925073;28;20525;-76
2023/04/04 07:10:10;;;;;;;;;;;;;;;4.69;45.97;98001.72;4925053;28;20328;-76
2023/04/04 07:12:35;;;;;;;;;;;;;;;4.63;45.62;98005.84;4925743;28;20093;-75
2023/04/04 07:15:01;;;;;;;;;;;;;;;5.01;45.71;98000.38;4930186;28;20092;-76
2023/04/04 07:17:27;;;;;;;;;;;;;;;5.17;44.69;98001.09;4916324;28;20076;-76
2023/04/04 07:19:52;;;;;;;;;;;;;;;5.25;44.35;97995.78;4924872;28;20239;-76
2023/04/04 07:22:17;;;;;;;;;;;;;;;5.36;44.19;97995.22;4917734;28;20134;-76
2023/04/04 07:24:43;;;;;;;;;;;;;;;5.49;43.88;97996.31;4945288;28;20256;-76
2023/04/04 07:27:10;;;;;;;;;;;;;;;5.86;43.64;97996.84;4931564;28;20265;-74
2023/04/04 07:29:43;;;;;;;;;;;;;;;6.32;43.37;97996.22;4920791;28;20227;-76
2023/04/04 07:32:08;;;;;;;;;;;;;;;6.57;41.91;97993.88;4929417;28;20321;-76
2023/04/04 07:34:33;;;;;;;;;;;;;;;6.68;41.02;97997.66;4918008;28;20098;-76
2023/04/04 07:36:59;;;;;;;;;;;;;;;6.67;41.26;97989.09;4931787;28;20493;-76
2023/04/04 07:39:24;;;;;;;;;;;;;;;6.38;40.63;97990.28;4926519;28;20127;-77
2023/04/04 07:41:49;;;;;;;;;;;;;;;6.47;41.04;97991.66;4944674;28;20072;-76
2023/04/04 07:44:14;;;;;;;;;;;;;;;6.58;40.68;97992.88;4928352;28;21382;-76
2023/04/04 07:46:40;;;;;;;;;;;;;;;6.77;40.17;97991.31;4915536;28;20173;-73
2023/04/04 07:49:06;;;;;;;;;;;;;;;6.75;39.92;97988.91;4921564;28;20147;-75
2023/04/04 07:51:31;;;;;;;;;;;;;;;7.29;39.72;97992.22;4928346;28;20469;-75
2023/04/04 07:53:57;;;;;;;;;;;;;;;7.23;38.30;98000.00;4929627;28;20465;-75
2023/04/04 07:56:22;;;;;;;;;;;;;;;6.96;39.02;97996.66;4913201;28;20278;-76
2023/04/04 07:58:48;;;;;;;;;;;;;;;7.40;38.70;97997.78;4951403;28;20089;-76
2023/04/04 08:01:13;;;;;;;;;;;;;;;7.21;38.12;97995.03;4944621;28;20327;-76
2023/04/04 08:03:38;;;;;;;;;;;;;;;7.36;38.66;97991.44;4934245;28;20128;-75
2023/04/04 08:06:04;;;;;;;;;;;;;;;7.40;38.43;97992.59;4932134;28;19967;-76
2023/04/04 08:08:29;;;;;;;;;;;;;;;7.12;38.34;97985.88;4919151;28;20167;-76
2023/04/04 08:10:54;;;;;;;;;;;;;;;7.66;37.90;97984.75;4931999;28;20205;-75
2023/04/04 08:13:19;;;;;;;;;;;;;;;8.16;38.08;97980.75;4954475;28;20136;-75
2023/04/04 08:15:45;;;;;;;;;;;;;;;8.18;37.05;97986.50;4920346;28;20048;-76
2023/04/04 08:18:10;;;;;;;;;;;;;;;8.27;37.08;97982.66;4951050;28;20069;-75
2023/04/04 08:20:35;;;;;;;;;;;;;;;8.18;36.33;97978.72;4915542;28;20166;-77
2023/04/04 08:23:01;;;;;;;;;;;;;;;7.99;36.83;97977.84;4937020;28;19917;-76
2023/04/04 08:25:26;;;;;;;;;;;;;;;8.23;35.82;97981.50;4911768;28;20080;-74
2023/04/04 08:27:51;;;;;;;;;;;;;;;8.23;36.26;97981.50;4937870;28;20071;-75
2023/04/04 08:30:17;;;;;;;;;;;;;;;8.27;35.61;97982.66;4921835;28;20080;-75
2023/04/04 08:32:44;;;;;;;;;;;;;;;8.85;35.54;97996.47;4937171;28;20045;-74
2023/04/04 08:35:10;;;;;;;;;;;;;;;8.04;35.07;97994.34;4936576;28;20083;-75
2023/04/04 08:37:36;;;;;;;;;;;;;;;8.23;35.89;97992.66;4937045;28;20555;-75
2023/04/04 08:40:02;;;;;;;;;;;;;;;8.31;35.65;97994.22;4929789;28;20082;-75
2023/04/04 08:42:28;;;;;;;;;;;;;;;8.68;36.03;97986.59;4936483;28;20560;-75
2023/04/04 08:44:56;;;;;;;;;;;;;;;9.06;34.46;97992.69;4939315;28;20075;-75
2023/04/04 08:47:22;;;;;;;;;;;;;;;9.40;35.12;97982.75;4938561;28;20077;-76
2023/04/04 08:49:47;;;;;;;;;;;;;;;8.73;35.06;97976.38;4937065;28;20096;-75
2023/04/04 08:52:12;;;;;;;;;;;;;;;8.13;35.02;97981.16;4937139;28;20280;-75
2023/04/04 08:54:39;;;;;;;;;;;;;;;8.40;36.28;97987.75;4954172;28;20169;-75
2023/04/04 08:57:04;;;;;;;;;;;;;;;8.45;35.49;97982.00;4951526;28;20147;-75
2023/04/04 08:59:30;;;;;;;;;;;;;;;8.57;35.34;97985.50;4956040;28;20170;-75
2023/04/04 09:01:56;;;;;;;;;;;;;;;8.79;35.19;97995.50;4937713;28;20372;-75
2023/04/04 09:04:22;;;;;;;;;;;;;;;8.99;35.32;97990.13;4918356;28;20045;-76
2023/04/04 09:06:47;;;;;;;;;;;;;;;9.15;35.28;97994.78;4931936;28;20335;-75
2023/04/04 09:09:13;;;;;;;;;;;;;;;9.21;34.90;97992.34;4918142;28;20110;-76
2023/04/04 09:11:38;;;;;;;;;;;;;;;8.60;35.73;98002.44;4898144;28;20093;-75
2023/04/04 09:14:04;;;;;;;;;;;;;;;8.90;34.55;98007.00;4915394;28;20140;-75
2023/04/04 09:16:29;;;;;;;;;;;;;;;8.98;35.16;97998.97;4925585;28;20172;-75
2023/04/04 09:18:55;;;;;;;;;;;;;;;8.68;35.05;98004.78;4916378;28;20100;-74
2023/04/04 09:21:20;;;;;;;;;;;;;;;8.83;35.57;97995.88;4916896;28;20427;-74
2023/04/04 09:23:45;;;;;;;;;;;;;;;8.84;35.42;98000.06;4934086;28;20185;-74
2023/04/04 09:26:15;;;;;;;;;;;;;;;8.81;34.69;97998.69;4925251;28;20118;-74
2023/04/04 09:28:41;;;;;;;;;;;;;;;8.90;36.28;97994.81;4934103;28;20566;-73
2023/04/04 09:31:06;;;;;;;;;;;;;;;8.99;35.59;97997.94;4933475;28;20161;-75
2023/04/04 09:33:32;;;;;;;;;;;;;;;9.63;34.35;98000.28;4945199;28;20376;-76
2023/04/04 09:35:58;;;;;;;;;;;;;;;10.04;34.09;97985.78;4939229;28;20106;-75
2023/04/04 09:38:25;;;;;;;;;;;;;;;9.97;34.11;97990.28;4936869;28;20416;-75
2023/04/04 09:40:51;;;;;;;;;;;;;;;10.70;32.58;97984.06;4913105;28;20162;-75
2023/04/04 09:43:21;;;;;;;;;;;;;;;10.20;33.42;97987.78;4923465;28;20022;-74
2023/04/04 09:45:46;;;;;;;;;;;;;;;10.22;33.30;97990.97;4921151;28;20250;-75
2023/04/04 09:48:12;;;;;;;;;;;;;;;10.38;32.96;97986.16;4932304;28;20286;-75
2023/04/04 09:50:44;;;;;;;;;;;;;;;9.46;34.13;98000.06;4917834;28;20690;-74
2023/04/04 09:53:11;;;;;;;;;;;;;;;9.57;34.58;97988.97;4915919;28;20238;-74
2023/04/04 09:55:36;;;;;;;;;;;;;;;10.16;34.20;97988.44;4910674;28;20319;-74
2023/04/04 09:58:11;;;;;;;;;;;;;;;9.88;33.31;97993.19;4950252;28;20572;-76
2023/04/04 10:00:39;;;;;;;;;;;;;;;9.68;33.80;97997.84;4933595;28;20270;-75
2023/04/04 10:03:04;;;;;;;;;;;;;;;10.37;33.83;97989.81;4933045;28;20166;-75
2023/04/04 10:05:29;;;;;;;;;;;;;;;9.80;34.19;97990.91;4917353;28;20247;-75
2023/04/04 10:07:58;;;;;;;;;;;;;;;9.61;33.42;97994.53;4916776;28;21327;-73
2023/04/04 10:10:25;;;;;;;;;;;;;;;9.67;33.82;97991.06;4933946;28;20075;-75
2023/04/04 10:12:51;;;;;;;;;;;;;;;9.88;34.23;97990.59;4949658;28;20053;-74
2023/04/04 10:15:16;;;;;;;;;;;;;;;9.98;33.18;97994.50;4933019;28;20101;-73
2023/04/04 10:17:42;;;;;;;;;;;;;;;10.14;32.73;97988.66;4918244;28;19990;-74
2023/04/04 10:20:08;;;;;;;;;;;;;;;10.50;34.32;97984.38;4947939;28;20092;-75
2023/04/04 10:22:34;;;;;;;;;;;;;;;10.38;33.25;97978.34;4925596;28;20145;-75
2023/04/04 10:24:59;;;;;;;;;;;;;;;11.23;32.92;97977.97;4941819;28;20076;-73
2023/04/04 10:27:25;;;;;;;;;;;;;;;11.51;33.93;97975.66;4916124;28;20100;-74
2023/04/04 10:29:51;;;;;;;;;;;;;;;11.60;32.45;97984.69;4898233;28;20326;-74
2023/04/04 10:32:22;;;;;;;;;;;;;;;11.83;31.19;97988.28;4906062;28;20069;-74
2023/04/04 10:34:56;;;;;;;;;;;;;;;12.02;30.64;97981.88;4915641;28;20324;-74
2023/04/04 10:37:24;;;;;;;;;;;;;;;11.69;30.99;97983.34;4941046;28;20277;-75
2023/04/04 10:39:54;;;;;;;;;;;;;;;11.80;31.82;97979.09;4930359;28;19956;-74
2023/04/04 10:42:20;;;;;;;;;;;;;;;11.67;31.60;97985.38;4948600;28;20079;-75
2023/04/04 10:44:45;;;;;;;;;;;;;;;10.91;31.33;97987.16;4912983;28;20157;-75
2023/04/04 10:47:16;;;;;;;;;;;;;;;11.16;31.11;97986.94;4947494;28;20156;-75
2023/04/04 10:49:43;;;;;;;;;;;;;;;11.11;33.01;97982.41;4929515;28;20094;-74
2023/04/04 10:52:08;;;;;;;;;;;;;;;11.25;30.97;97980.34;4918533;28;20241;-74
2023/04/04 10:54:34;;;;;;;;;;;;;;;11.50;31.89;97977.47;4914225;28;20274;-75
2023/04/04 10:56:59;;;;;;;;;;;;;;;11.23;31.59;97982.41;4914453;28;20069;-75
2023/04/04 10:59:25;;;;;;;;;;;;;;;11.24;32.59;97978.75;4915947;28;20199;-74
2023/04/04 11:01:57;;;;;;;;;;;;;;;11.26;31.61;97971.50;4914894;28;20275;-76
2023/04/04 11:04:32;;;;;;;;;;;;;;;11.44;31.37;97976.56;4916773;28;20099;-75
2023/04/04 11:07:16;;;;;;;;;;;;;;;12.07;31.74;97966.31;4905930;28;20070;-75
2023/04/04 11:09:48;;;;;;;;;;;;;;;12.29;31.34;97957.81;4932411;28;20208;-75
2023/04/04 11:12:20;;;;;;;;;;;;;;;12.69;30.71;97962.09;4946236;28;20299;-75
2023/04/04 11:14:55;;;;;;;;;;;;;;;12.07;31.04;97961.09;4928389;28;20181;-75
2023/04/04 11:17:40;;;;;;;;;;;;;;;11.78;30.12;97955.06;4939493;28;20072;-75
2023/04/04 11:20:07;;;;;;;;;;;;;;;12.27;29.66;97962.47;4931559;28;19974;-76
2023/04/04 11:22:35;;;;;;;;;;;;;;;12.68;30.44;97953.47;4932467;28;20331;-75
2023/04/04 11:25:08;;;;;;;;;;;;;;;12.29;29.88;97961.22;4931904;28;20225;-75
2023/04/04 11:27:33;;;;;;;;;;;;;;;12.76;30.46;97952.28;4931689;28;20092;-74
2023/04/04 11:29:59;;;;;;;;;;;;;;;12.89;29.33;97941.50;4945739;28;20239;-75
2023/04/04 11:32:50;;;;;;;;;;;;;;;13.23;30.25;97949.28;4914917;28;20102;-74
2023/04/04 11:35:16;;;;;;;;;;;;;;;12.87;29.38;97945.41;4932860;28;20131;-75
2023/04/04 11:37:51;;;;;;;;;;;;;;;12.81;28.84;97949.75;4927121;28;20064;-74
2023/04/04 11:40:17;;;;;;;;;;;;;;;12.22;30.22;97949.31;4931010;28;20091;-75
2023/04/04 11:42:42;;;;;;;;;;;;;;;12.08;30.32;97938.38;4927423;28;20225;-74
2023/04/04 11:45:11;;;;;;;;;;;;;;;11.94;29.57;97943.91;4914243;28;20204;-75
2023/04/04 11:47:36;;;;;;;;;;;;;;;11.94;30.96;97940.50;4897232;28;20147;-74
2023/04/04 11:50:07;;;;;;;;;;;;;;;12.08;30.63;97947.03;4928596;28;20253;-75
2023/04/04 11:52:37;;;;;;;;;;;;;;;11.92;30.65;97942.56;4931818;28;20611;-74
2023/04/04 11:55:12;;;;;;;;;;;;;;;11.88;31.05;97947.41;4917614;28;20021;-74
2023/04/04 11:57:39;;;;;;;;;;;;;;;12.66;32.36;97946.91;4912319;28;20183;-74
2023/04/04 12:00:07;;;;;;;;;;;;;;;12.85;29.18;97935.19;4929168;28;20292;-75
2023/04/04 12:02:33;;;;;;;;;;;;;;;12.77;29.55;97940.81;4916612;28;20307;-74
2023/04/04 12:04:58;;;;;;;;;;;;;;;12.50;29.37;97922.38;4939586;28;20057;-75
2023/04/04 12:07:24;;;;;;;;;;;;;;;11.61;30.23;97932.31;4912813;28;20258;-75
2023/04/04 12:09:49;;;;;;;;;;;;;;;10.63;31.00;97932.09;4931563;28;20308;-74
2023/04/04 12:12:15;;;;;;;;;;;;;;;10.93;30.92;97939.00;4931628;28;20243;-74
2023/04/04 12:14:41;;;;;;;;;;;;;;;11.08;30.77;97928.13;4932687;28;20262;-75
2023/04/04 12:17:06;;;;;;;;;;;;;;;11.51;30.98;97926.09;4912123;28;19964;-74
2023/04/04 12:19:35;;;;;;;;;;;;;;;12.22;32.25;97920.59;4936328;28;20080;-75
2023/04/04 12:22:00;;;;;;;;;;;;;;;12.65;30.57;97925.22;4904005;28;20060;-74
2023/04/04 12:24:26;;;;;;;;;;;;;;;12.30;30.51;97928.88;4931534;28;20165;-75
2023/04/04 12:26:51;;;;;;;;;;;;;;;12.50;30.17;97933.59;4948908;28;20095;-76
2023/04/04 12:29:17;;;;;;;;;;;;;;;12.24;30.54;97924.56;4914187;28;20071;-75
2023/04/04 12:31:43;;;;;;;;;;;;;;;12.83;29.23;97915.53;4915272;28;20081;-75
2023/04/04 12:34:18;;;;;;;;;;;;;;;12.41;28.67;97919.38;4908032;28;20188;-75
2023/04/04 12:36:47;;;;;;;;;;;;;;;12.48;30.56;97925.22;4927899;28;20130;-74
2023/04/04 12:39:13;;;;;;;;;;;;;;;12.27;30.28;97920.69;4931771;28;20252;-76
2023/04/04 12:41:48;;;;;;;;;;;;;;;11.93;29.70;97913.63;4913238;28;20100;-75
2023/04/04 12:44:24;;;;;;;;;;;;;;;11.91;30.33;97909.63;4930350;28;20081;-75
2023/04/04 12:46:49;;;;;;;;;;;;;;;11.68;30.18;97908.69;4935151;28;20292;-74
2023/04/04 12:49:20;;;;;;;;;;;;;;;11.60;30.62;97909.88;4932582;28;20092;-75
2023/04/04 12:51:45;;;;;;;;;;;;;;;11.73;31.61;97902.78;4908951;28;20287;-74